Time;durP1;ratioP1;P1;durP2;ratioP2;P2;SDS_P1;SDS_P2;PMS_P1;PMS_P2;Temp;Humidity;BMP_temperature;BMP_pressure;BME280_temperature;BME280_humidity;BME280_pressure;Samples;Min_cycle;Max_cycle;Signal;HPM_P1;HPM_P2
2022/07/18 00:02:02;;;;;;;;;;;21.40;71.80;;;;;;5008297;28;19930;-76
2022/07/18 00:04:30;;;;;;;;;;;21.40;71.50;;;;;;4987996;28;19930;-76
2022/07/18 00:06:58;;;;;;;;;;;21.30;71.80;;;;;;4987305;28;19930;-75
2022/07/18 00:09:26;;;;;;;;;;;21.30;71.70;;;;;;4987977;28;19933;-75
2022/07/18 00:12:03;;;;;;;;;;;21.20;71.90;;;;;;4954308;28;19926;-75
2022/07/18 00:14:31;;;;;;;;;;;21.20;72.10;;;;;;5004759;28;19929;-77
2022/07/18 00:17:00;;;;;;;;;;;20.90;72.30;;;;;;5014449;28;19926;-76
2022/07/18 00:19:29;;;;;;;;;;;21.10;72.50;;;;;;4987884;28;19929;-75
2022/07/18 00:22:00;;;;;;;;;;;20.90;72.10;;;;;;5003335;28;19925;-76
2022/07/18 00:24:31;;;;;;;;;;;21.00;72.40;;;;;;5016959;28;19926;-75
2022/07/18 00:26:59;;;;;;;;;;;20.90;73.00;;;;;;5003829;28;19937;-76
2022/07/18 00:29:27;;;;;;;;;;;21.00;73.30;;;;;;4987942;28;19940;-76
2022/07/18 00:31:55;;;;;;;;;;;20.90;72.90;;;;;;5010686;28;19936;-77
2022/07/18 00:34:23;;;;;;;;;;;20.90;73.20;;;;;;4987218;28;19926;-75
2022/07/18 00:36:51;;;;;;;;;;;20.90;73.40;;;;;;5003550;28;19930;-75
2022/07/18 00:39:19;;;;;;;;;;;20.90;73.00;;;;;;5004087;28;19926;-75
2022/07/18 00:41:47;;;;;;;;;;;20.90;74.10;;;;;;4986198;28;19930;-77
2022/07/18 00:44:20;;;;;;;;;;;20.80;75.00;;;;;;4999319;28;19925;-75
2022/07/18 00:46:49;;;;;;;;;;;19.10;72.90;;;;;;4985757;28;19941;-75
2022/07/18 00:49:17;;;;;;;;;;;20.70;73.70;;;;;;5003094;28;19925;-75
2022/07/18 00:51:45;;;;;;;;;;;20.70;73.80;;;;;;5002524;28;19930;-75
2022/07/18 00:54:14;;;;;;;;;;;20.70;73.40;;;;;;4960382;28;19926;-76
2022/07/18 00:56:42;;;;;;;;;;;20.70;73.70;;;;;;5003803;28;19929;-76
2022/07/18 00:59:11;;;;;;;;;;;20.70;74.10;;;;;;5002744;28;19926;-75
2022/07/18 01:01:42;;;;;;;;;;;20.60;74.20;;;;;;5007921;28;19933;-75
2022/07/18 01:04:11;;;;;;;;;;;20.60;74.10;;;;;;4986516;28;19926;-75
2022/07/18 01:06:39;;;;;;;;;;;20.10;73.70;;;;;;4970514;28;20666;-76
2022/07/18 01:09:07;;;;;;;;;;;20.50;73.80;;;;;;4990666;28;19930;-76
2022/07/18 01:11:36;;;;;;;;;;;20.50;74.00;;;;;;5003002;28;19925;-75
2022/07/18 01:14:05;;;;;;;;;;;20.40;74.70;;;;;;5002483;28;19926;-76
2022/07/18 01:16:33;;;;;;;;;;;20.40;74.90;;;;;;4970721;28;20412;-75
2022/07/18 01:19:03;;;;;;;;;;;20.30;74.40;;;;;;4986013;28;19936;-75
2022/07/18 01:21:31;;;;;;;;;;;20.30;74.80;;;;;;4968569;28;19933;-75
2022/07/18 01:24:00;;;;;;;;;;;20.30;76.00;;;;;;4952226;28;19927;-75
2022/07/18 01:26:28;;;;;;;;;;;20.20;75.40;;;;;;4970525;28;20381;-75
2022/07/18 01:28:56;;;;;;;;;;;20.10;75.70;;;;;;4969920;28;19933;-75
2022/07/18 01:31:24;;;;;;;;;;;19.80;76.80;;;;;;4993558;28;19926;-75
2022/07/18 01:33:55;;;;;;;;;;;19.90;76.50;;;;;;4988096;28;19930;-75
2022/07/18 01:36:23;;;;;;;;;;;19.90;77.00;;;;;;5001805;28;19941;-75
2022/07/18 01:38:51;;;;;;;;;;;19.80;76.50;;;;;;5003302;28;19926;-75
2022/07/18 01:41:18;;;;;;;;;;;19.80;76.50;;;;;;4985797;28;19930;-75
2022/07/18 01:43:46;;;;;;;;;;;19.70;77.60;;;;;;4984934;28;19937;-78
2022/07/18 01:46:14;;;;;;;;;;;19.70;77.60;;;;;;4988995;28;19926;-74
2022/07/18 01:48:42;;;;;;;;;;;19.70;77.10;;;;;;5003738;28;19930;-75
2022/07/18 01:51:10;;;;;;;;;;;19.60;77.30;;;;;;5004485;28;19926;-75
2022/07/18 01:53:40;;;;;;;;;;;19.50;77.40;;;;;;4987291;28;19930;-75
2022/07/18 01:56:11;;;;;;;;;;;19.50;77.70;;;;;;4989701;28;19930;-75
2022/07/18 01:58:39;;;;;;;;;;;19.40;78.10;;;;;;4976324;28;19933;-74
2022/07/18 02:01:08;;;;;;;;;;;19.40;78.20;;;;;;5005759;28;19933;-75
2022/07/18 02:03:36;;;;;;;;;;;19.30;78.00;;;;;;5004139;28;19926;-75
2022/07/18 02:06:04;;;;;;;;;;;19.30;78.20;;;;;;4987787;28;19926;-75
2022/07/18 02:08:33;;;;;;;;;;;19.30;79.00;;;;;;5003521;28;19930;-74
2022/07/18 02:11:00;;;;;;;;;;;19.20;78.80;;;;;;5009051;28;19926;-75
2022/07/18 02:13:29;;;;;;;;;;;18.10;78.40;;;;;;5008703;28;19930;-75
2022/07/18 02:15:56;;;;;;;;;;;19.10;78.60;;;;;;4990053;28;19930;-75
2022/07/18 02:18:27;;;;;;;;;;;19.00;79.70;;;;;;4998426;28;19926;-74
2022/07/18 02:20:54;;;;;;;;;;;18.90;79.10;;;;;;5007333;28;19933;-75
2022/07/18 02:23:24;;;;;;;;;;;18.90;79.60;;;;;;5007225;28;19925;-74
2022/07/18 02:25:52;;;;;;;;;;;18.90;79.80;;;;;;5010119;28;19936;-75
2022/07/18 02:28:21;;;;;;;;;;;18.90;79.60;;;;;;4989223;28;19926;-76
2022/07/18 02:30:49;;;;;;;;;;;18.90;79.60;;;;;;5014700;28;19930;-75
2022/07/18 02:33:17;;;;;;;;;;;18.80;80.40;;;;;;5007466;28;19926;-74
2022/07/18 02:35:45;;;;;;;;;;;18.80;80.70;;;;;;4991180;28;19926;-76
2022/07/18 02:38:13;;;;;;;;;;;18.50;80.30;;;;;;4989736;28;19948;-75
2022/07/18 02:40:42;;;;;;;;;;;18.70;80.70;;;;;;5008110;28;19926;-78
2022/07/18 02:43:11;;;;;;;;;;;18.60;80.80;;;;;;4992263;28;20413;-76
2022/07/18 02:45:39;;;;;;;;;;;18.60;81.20;;;;;;5007642;28;19937;-75
2022/07/18 02:48:10;;;;;;;;;;;18.40;81.40;;;;;;4985246;28;19926;-74
2022/07/18 02:50:38;;;;;;;;;;;18.50;81.50;;;;;;4989706;28;19932;-75
2022/07/18 02:53:06;;;;;;;;;;;18.50;82.10;;;;;;4990639;28;19926;-76
2022/07/18 02:55:33;;;;;;;;;;;18.50;81.30;;;;;;4990571;28;19930;-74
2022/07/18 02:58:01;;;;;;;;;;;18.50;81.90;;;;;;5007161;28;19930;-75
2022/07/18 03:00:30;;;;;;;;;;;18.40;82.10;;;;;;5013032;28;19934;-74
2022/07/18 03:02:57;;;;;;;;;;;18.40;81.70;;;;;;5007298;28;19930;-75
2022/07/18 03:05:25;;;;;;;;;;;18.40;82.10;;;;;;5006897;28;19929;-75
2022/07/18 03:07:53;;;;;;;;;;;18.40;82.20;;;;;;4990616;28;19926;-75
2022/07/18 03:10:21;;;;;;;;;;;18.40;82.60;;;;;;4991058;28;19926;-74
2022/07/18 03:12:49;;;;;;;;;;;18.40;83.30;;;;;;5006909;28;19929;-76
2022/07/18 03:15:17;;;;;;;;;;;18.30;82.40;;;;;;4988323;28;19929;-74
2022/07/18 03:17:45;;;;;;;;;;;18.30;82.90;;;;;;5006950;28;19926;-75
2022/07/18 03:20:13;;;;;;;;;;;18.20;82.70;;;;;;5005751;28;19926;-74
2022/07/18 03:22:41;;;;;;;;;;;18.20;83.10;;;;;;4990747;28;19932;-75
2022/07/18 03:25:09;;;;;;;;;;;16.80;82.40;;;;;;4994819;28;19926;-75
2022/07/18 03:27:42;;;;;;;;;;;18.20;83.80;;;;;;4990237;28;19959;-75
2022/07/18 03:30:10;;;;;;;;;;;18.20;83.50;;;;;;5013028;28;19936;-74
2022/07/18 03:32:40;;;;;;;;;;;18.10;83.10;;;;;;4973942;28;19940;-73
2022/07/18 03:35:08;;;;;;;;;;;18.20;83.00;;;;;;4990263;28;20273;-75
2022/07/18 03:37:36;;;;;;;;;;;18.20;83.10;;;;;;4989783;28;19926;-75
2022/07/18 03:40:04;;;;;;;;;;;18.20;83.40;;;;;;4973189;28;19952;-74
2022/07/18 03:42:32;;;;;;;;;;;18.10;83.30;;;;;;5000399;28;19926;-74
2022/07/18 03:44:59;;;;;;;;;;;18.00;83.80;;;;;;5007511;28;19932;-76
2022/07/18 03:47:27;;;;;;;;;;;18.10;83.40;;;;;;5007403;28;19929;-75
2022/07/18 03:49:56;;;;;;;;;;;18.10;83.60;;;;;;4988895;28;19925;-74
2022/07/18 03:52:23;;;;;;;;;;;18.10;83.40;;;;;;5007263;28;19930;-75
2022/07/18 03:54:51;;;;;;;;;;;16.90;83.00;;;;;;5020271;28;19930;-75
2022/07/18 03:57:20;;;;;;;;;;;18.00;83.60;;;;;;4989095;28;19933;-75
2022/07/18 03:59:49;;;;;;;;;;;18.00;83.70;;;;;;4975875;28;19936;-74
2022/07/18 04:02:17;;;;;;;;;;;18.00;84.20;;;;;;4989192;28;19936;-75
2022/07/18 04:04:45;;;;;;;;;;;18.00;83.90;;;;;;4988974;28;19926;-74
2022/07/18 04:07:13;;;;;;;;;;;18.00;84.40;;;;;;4973009;28;19926;-75
2022/07/18 04:09:42;;;;;;;;;;;17.90;84.30;;;;;;4982481;28;19932;-75
2022/07/18 04:12:10;;;;;;;;;;;18.00;84.70;;;;;;5007063;28;19930;-76
2022/07/18 04:14:38;;;;;;;;;;;18.00;85.30;;;;;;4957579;28;19925;-76
2022/07/18 04:17:06;;;;;;;;;;;18.00;85.40;;;;;;5016273;28;19926;-74
2022/07/18 04:19:34;;;;;;;;;;;17.80;85.40;;;;;;4989932;28;19940;-76
2022/07/18 04:22:02;;;;;;;;;;;17.80;86.10;;;;;;4986983;28;19937;-76
2022/07/18 04:24:30;;;;;;;;;;;17.80;86.00;;;;;;4983995;28;19933;-75
2022/07/18 04:26:58;;;;;;;;;;;17.80;85.20;;;;;;5005659;28;19933;-79
2022/07/18 04:29:26;;;;;;;;;;;17.80;85.50;;;;;;4988627;28;19925;-76
2022/07/18 04:31:53;;;;;;;;;;;17.80;85.50;;;;;;5005550;28;19936;-75
2022/07/18 04:34:23;;;;;;;;;;;17.80;85.50;;;;;;5005745;28;19926;-74
2022/07/18 04:36:51;;;;;;;;;;;17.80;85.00;;;;;;4989186;28;19933;-74
2022/07/18 04:39:20;;;;;;;;;;;17.90;85.60;;;;;;5006460;28;19926;-76
2022/07/18 04:41:48;;;;;;;;;;;17.90;85.20;;;;;;4989765;28;19926;-75
2022/07/18 04:44:17;;;;;;;;;;;17.90;85.70;;;;;;4992238;28;20468;-76
2022/07/18 04:46:45;;;;;;;;;;;17.90;85.70;;;;;;5007212;28;19926;-75
2022/07/18 04:49:13;;;;;;;;;;;17.90;85.90;;;;;;5004591;28;19937;-75
2022/07/18 04:51:41;;;;;;;;;;;18.00;86.00;;;;;;4987008;28;20302;-75
2022/07/18 04:54:12;;;;;;;;;;;18.00;85.80;;;;;;5008759;28;19929;-74
2022/07/18 04:56:40;;;;;;;;;;;18.00;86.50;;;;;;4983894;28;19933;-75
2022/07/18 04:59:08;;;;;;;;;;;17.20;85.40;;;;;;4970767;28;19929;-76
2022/07/18 05:01:36;;;;;;;;;;;18.20;85.60;;;;;;4985157;28;19936;-75
2022/07/18 05:04:04;;;;;;;;;;;18.30;85.30;;;;;;4969533;28;19926;-76
2022/07/18 05:06:32;;;;;;;;;;;18.40;86.20;;;;;;5002675;28;19937;-76
2022/07/18 05:09:01;;;;;;;;;;;18.40;85.80;;;;;;5003842;28;19930;-75
2022/07/18 05:11:29;;;;;;;;;;;18.50;85.30;;;;;;4970691;28;19941;-75
2022/07/18 05:13:58;;;;;;;;;;;18.60;85.60;;;;;;4970223;28;19925;-75
2022/07/18 05:16:27;;;;;;;;;;;18.70;85.20;;;;;;5007276;28;20393;-75
2022/07/18 05:18:55;;;;;;;;;;;18.80;85.00;;;;;;5007889;28;20245;-74
2022/07/18 05:21:23;;;;;;;;;;;18.80;85.10;;;;;;5002635;28;19926;-75
2022/07/18 05:23:51;;;;;;;;;;;18.90;84.50;;;;;;5002061;28;19930;-75
2022/07/18 05:26:19;;;;;;;;;;;19.00;84.50;;;;;;4999179;28;19926;-75
2022/07/18 05:28:47;;;;;;;;;;;19.20;84.80;;;;;;4970478;28;19930;-75
2022/07/18 05:31:15;;;;;;;;;;;19.10;84.40;;;;;;4985695;28;20606;-76
2022/07/18 05:33:42;;;;;;;;;;;19.20;84.30;;;;;;4970304;28;19929;-75
2022/07/18 05:36:11;;;;;;;;;;;19.30;84.50;;;;;;5003992;28;20496;-76
2022/07/18 05:38:38;;;;;;;;;;;19.30;84.10;;;;;;5002358;28;19922;-75
2022/07/18 05:41:07;;;;;;;;;;;18.00;83.30;;;;;;5002673;28;19926;-77
2022/07/18 05:43:35;;;;;;;;;;;19.50;84.20;;;;;;5002776;28;19932;-75
2022/07/18 05:46:03;;;;;;;;;;;19.50;83.50;;;;;;4987378;28;20496;-75
2022/07/18 05:48:32;;;;;;;;;;;19.60;83.80;;;;;;5003330;28;19926;-74
2022/07/18 05:51:00;;;;;;;;;;;19.70;83.40;;;;;;5002576;28;19925;-75
2022/07/18 05:53:28;;;;;;;;;;;19.70;83.30;;;;;;4989133;28;19951;-75
2022/07/18 05:55:56;;;;;;;;;;;19.80;83.30;;;;;;4997481;28;19940;-76
2022/07/18 05:58:27;;;;;;;;;;;19.90;83.10;;;;;;4971168;28;19925;-76
2022/07/18 06:00:55;;;;;;;;;;;19.90;82.80;;;;;;5009235;28;19930;-75
2022/07/18 06:03:24;;;;;;;;;;;20.10;82.80;;;;;;5003636;28;19933;-75
2022/07/18 06:05:52;;;;;;;;;;;20.20;82.50;;;;;;5002867;28;19934;-75
2022/07/18 06:08:26;;;;;;;;;;;20.20;82.40;;;;;;5001187;28;19926;-75
2022/07/18 06:10:54;;;;;;;;;;;20.40;82.10;;;;;;4998887;28;20508;-75
2022/07/18 06:13:23;;;;;;;;;;;20.50;81.70;;;;;;5002079;28;19926;-75
2022/07/18 06:16:02;;;;;;;;;;;20.60;81.90;;;;;;4993436;28;19929;-74
2022/07/18 06:18:30;;;;;;;;;;;21.00;82.00;;;;;;5005070;28;19926;-76
2022/07/18 06:20:58;;;;;;;;;;;20.70;81.30;;;;;;5004301;28;19929;-78
2022/07/18 06:23:27;;;;;;;;;;;21.00;82.30;;;;;;5007660;28;19930;-75
2022/07/18 06:25:55;;;;;;;;;;;20.90;81.10;;;;;;4640543;28;9999765;-75
2022/07/18 06:28:25;;;;;;;;;;;21.00;81.00;;;;;;5003099;28;19929;-74
2022/07/18 06:30:54;;;;;;;;;;;21.10;80.60;;;;;;4979654;28;19930;-74
2022/07/18 06:33:22;;;;;;;;;;;21.20;80.40;;;;;;4995784;28;20009;-75
2022/07/18 06:35:51;;;;;;;;;;;21.30;80.00;;;;;;4969835;28;19926;-75
2022/07/18 06:38:19;;;;;;;;;;;21.40;79.40;;;;;;4994889;28;20422;-75
2022/07/18 06:40:46;;;;;;;;;;;21.50;79.80;;;;;;5002967;28;19926;-76
2022/07/18 06:43:19;;;;;;;;;;;21.60;79.80;;;;;;5000951;28;19945;-74
2022/07/18 06:45:48;;;;;;;;;;;21.70;79.30;;;;;;5001748;28;19925;-77
2022/07/18 06:48:16;;;;;;;;;;;21.80;78.90;;;;;;4983615;28;19926;-77
2022/07/18 06:50:44;;;;;;;;;;;21.90;78.50;;;;;;5001423;28;19933;-76
2022/07/18 06:53:13;;;;;;;;;;;22.00;78.30;;;;;;4984762;28;19940;-77
2022/07/18 06:55:41;;;;;;;;;;;22.10;77.80;;;;;;4983726;28;20610;-79
2022/07/18 06:58:09;;;;;;;;;;;22.20;77.10;;;;;;4987055;28;19930;-78
2022/07/18 07:00:37;;;;;;;;;;;22.30;77.20;;;;;;5011272;28;20002;-77
2022/07/18 07:03:05;;;;;;;;;;;22.40;77.10;;;;;;5004744;28;19929;-75
2022/07/18 07:05:33;;;;;;;;;;;22.50;77.20;;;;;;4973087;28;19933;-78
2022/07/18 07:08:01;;;;;;;;;;;22.60;77.00;;;;;;4988741;28;19929;-78
2022/07/18 07:10:29;;;;;;;;;;;22.70;77.10;;;;;;5006409;28;19930;-77
2022/07/18 07:12:57;;;;;;;;;;;22.70;76.80;;;;;;4987911;28;19930;-76
2022/07/18 07:15:25;;;;;;;;;;;22.80;76.40;;;;;;5006507;28;19925;-76
2022/07/18 07:17:54;;;;;;;;;;;22.90;76.30;;;;;;4972123;28;19940;-77
2022/07/18 07:20:21;;;;;;;;;;;23.10;75.80;;;;;;5005536;28;19941;-77
2022/07/18 07:22:52;;;;;;;;;;;23.20;75.80;;;;;;4988056;28;19925;-78
2022/07/18 07:25:21;;;;;;;;;;;23.30;75.60;;;;;;5006225;28;19926;-77
2022/07/18 07:27:50;;;;;;;;;;;23.40;75.30;;;;;;5005755;28;19931;-77
2022/07/18 07:30:18;;;;;;;;;;;23.50;75.00;;;;;;4983933;28;19930;-76
2022/07/18 07:32:47;;;;;;;;;;;23.60;75.00;;;;;;5003724;28;19933;-77
2022/07/18 07:35:19;;;;;;;;;;;23.80;74.60;;;;;;5005762;28;19930;-76
2022/07/18 07:37:48;;;;;;;;;;;23.90;74.40;;;;;;5005435;28;19941;-76
2022/07/18 07:40:17;;;;;;;;;;;24.00;74.10;;;;;;4983677;28;19940;-77
2022/07/18 07:42:46;;;;;;;;;;;24.10;73.70;;;;;;4982729;28;19932;-76
2022/07/18 07:45:14;;;;;;;;;;;24.30;73.70;;;;;;5001074;28;19925;-76
2022/07/18 07:47:42;;;;;;;;;;;24.40;72.90;;;;;;5002712;28;20067;-76
2022/07/18 07:50:11;;;;;;;;;;;24.60;72.60;;;;;;5002700;28;19930;-76
2022/07/18 07:52:40;;;;;;;;;;;24.70;72.50;;;;;;4997733;28;19934;-76
2022/07/18 07:55:08;;;;;;;;;;;24.80;72.10;;;;;;4981988;28;19926;-78
2022/07/18 07:57:36;;;;;;;;;;;25.00;71.90;;;;;;5003490;28;19926;-77
2022/07/18 08:00:07;;;;;;;;;;;24.80;71.40;;;;;;4983399;28;19926;-76
2022/07/18 08:02:54;;;;;;;;;;;25.30;70.80;;;;;;4981435;28;19933;-80
2022/07/18 08:05:29;;;;;;;;;;;25.50;70.40;;;;;;5002046;28;19933;-80
2022/07/18 08:07:57;;;;;;;;;;;25.60;70.00;;;;;;4985559;28;20395;-77
2022/07/18 08:10:26;;;;;;;;;;;25.80;69.40;;;;;;4995349;28;19926;-77
2022/07/18 08:12:55;;;;;;;;;;;25.90;68.20;;;;;;4979040;28;19932;-77
2022/07/18 08:15:25;;;;;;;;;;;26.10;68.80;;;;;;5001167;28;19966;-77
2022/07/18 08:17:54;;;;;;;;;;;26.20;69.10;;;;;;5000380;28;19926;-77
2022/07/18 08:20:22;;;;;;;;;;;26.20;67.80;;;;;;5000515;28;19933;-79
2022/07/18 08:22:57;;;;;;;;;;;26.50;68.40;;;;;;5000806;28;19934;-77
2022/07/18 08:25:28;;;;;;;;;;;26.70;65.90;;;;;;4983672;28;19936;-78
2022/07/18 08:27:57;;;;;;;;;;;26.90;64.60;;;;;;4983469;28;19940;-77
2022/07/18 08:30:26;;;;;;;;;;;27.00;63.20;;;;;;4984739;28;20307;-78
2022/07/18 08:32:55;;;;;;;;;;;27.30;63.70;;;;;;5000593;28;19926;-77
2022/07/18 08:35:24;;;;;;;;;;;28.20;64.00;;;;;;5000988;28;20438;-78
2022/07/18 08:37:52;;;;;;;;;;;27.70;62.80;;;;;;4982716;28;19926;-78
2022/07/18 08:40:20;;;;;;;;;;;27.90;61.30;;;;;;4999475;28;19933;-78
2022/07/18 08:42:52;;;;;;;;;;;28.00;62.90;;;;;;5001211;28;19934;-77
2022/07/18 08:45:55;;;;;;;;;;;29.50;61.30;;;;;;4995593;28;21371;-77
2022/07/18 08:48:23;;;;;;;;;;;27.40;60.30;;;;;;4983389;28;20291;-77
2022/07/18 08:50:50;;;;;;;;;;;28.50;60.20;;;;;;5000879;28;20004;-78
2022/07/18 08:53:19;;;;;;;;;;;28.70;59.00;;;;;;4968803;28;19941;-78
2022/07/18 08:55:48;;;;;;;;;;;28.80;59.10;;;;;;5002414;28;19940;-78
2022/07/18 08:58:17;;;;;;;;;;;28.90;58.10;;;;;;4983452;28;19932;-78
2022/07/18 09:01:05;;;;;;;;;;;29.00;58.30;;;;;;4998259;28;19926;-78
2022/07/18 09:03:33;;;;;;;;;;;29.10;57.70;;;;;;4985364;28;19936;-77
2022/07/18 09:06:04;;;;;;;;;;;29.20;58.50;;;;;;5002902;28;19926;-78
2022/07/18 09:08:35;;;;;;;;;;;29.30;57.90;;;;;;5002704;28;20280;-78
2022/07/18 09:11:03;;;;;;;;;;;29.40;58.20;;;;;;4985928;28;20413;-77
2022/07/18 09:13:32;;;;;;;;;;;29.50;57.10;;;;;;5000436;28;20339;-79
2022/07/18 09:16:05;;;;;;;;;;;30.40;57.60;;;;;;4983029;28;19941;-78
2022/07/18 09:18:38;;;;;;;;;;;29.70;56.50;;;;;;5000505;28;19937;-78
2022/07/18 09:21:07;;;;;;;;;;;29.90;57.60;;;;;;4990835;28;19926;-78
2022/07/18 09:23:37;;;;;;;;;;;29.50;57.20;;;;;;4985833;28;19934;-79
2022/07/18 09:26:05;;;;;;;;;;;30.00;56.80;;;;;;4998363;28;19933;-78
2022/07/18 09:28:53;;;;;;;;;;;30.10;56.60;;;;;;4984452;28;19941;-78
2022/07/18 09:31:50;;;;;;;;;;;30.20;56.70;;;;;;4994291;28;19933;-78
2022/07/18 09:34:38;;;;;;;;;;;30.30;56.90;;;;;;4999487;28;20280;-82
2022/07/18 09:37:10;;;;;;;;;;;30.40;56.50;;;;;;4999467;28;19926;-78
2022/07/18 09:39:38;;;;;;;;;;;30.40;56.90;;;;;;4982929;28;20476;-78
2022/07/18 09:42:13;;;;;;;;;;;30.50;56.60;;;;;;4980975;28;19926;-78
2022/07/18 09:44:41;;;;;;;;;;;30.60;56.90;;;;;;4998992;28;19932;-79
2022/07/18 09:47:09;;;;;;;;;;;30.50;55.90;;;;;;5000801;28;19926;-78
2022/07/18 09:49:42;;;;;;;;;;;30.80;56.60;;;;;;4973517;28;19956;-79
2022/07/18 09:52:10;;;;;;;;;;;30.80;56.30;;;;;;4996171;28;19926;-79
2022/07/18 09:54:40;;;;;;;;;;;30.90;54.90;;;;;;4980165;28;20286;-78
2022/07/18 09:57:08;;;;;;;;;;;31.00;55.50;;;;;;4996938;28;20275;-79
2022/07/18 09:59:37;;;;;;;;;;;31.20;55.90;;;;;;4979737;28;19926;-79
2022/07/18 10:02:12;;;;;;;;;;;31.00;55.00;;;;;;4979168;28;19926;-78
2022/07/18 10:04:40;;;;;;;;;;;31.10;55.20;;;;;;4979617;28;20017;-76
2022/07/18 10:07:10;;;;;;;;;;;31.20;55.30;;;;;;4979018;28;19941;-78
2022/07/18 10:09:39;;;;;;;;;;;31.30;55.30;;;;;;4982704;28;19941;-78
2022/07/18 10:12:09;;;;;;;;;;;31.30;54.20;;;;;;4994337;28;19926;-79
2022/07/18 10:14:38;;;;;;;;;;;31.40;54.00;;;;;;4996230;28;20414;-78
2022/07/18 10:17:05;;;;;;;;;;;31.50;54.50;;;;;;4996947;28;20428;-78
2022/07/18 10:19:34;;;;;;;;;;;31.60;55.50;;;;;;4979133;28;19934;-78
2022/07/18 10:22:04;;;;;;;;;;;31.60;54.90;;;;;;4967481;28;19926;-77
2022/07/18 10:24:33;;;;;;;;;;;31.90;54.70;;;;;;4998060;28;19934;-78
2022/07/18 10:27:16;;;;;;;;;;;31.80;54.70;;;;;;4979747;28;19930;-81
2022/07/18 10:30:03;;;;;;;;;;;32.00;54.90;;;;;;4979227;28;19925;-79
2022/07/18 10:32:33;;;;;;;;;;;32.30;55.00;;;;;;5000409;28;19934;-79
2022/07/18 10:35:01;;;;;;;;;;;32.20;54.50;;;;;;5001281;28;19932;-79
2022/07/18 10:37:33;;;;;;;;;;;32.30;54.80;;;;;;4968653;28;19937;-78
2022/07/18 10:40:34;;;;;;;;;;;32.40;55.00;;;;;;4976751;28;19941;-77
2022/07/18 10:43:21;;;;;;;;;;;32.50;54.20;;;;;;4963124;28;19926;-79
2022/07/18 10:45:49;;;;;;;;;;;32.60;54.40;;;;;;4986693;28;19937;-79
2022/07/18 10:48:32;;;;;;;;;;;32.70;53.90;;;;;;4987332;28;19932;-80
2022/07/18 10:51:02;;;;;;;;;;;32.90;54.70;;;;;;4999096;28;19934;-77
2022/07/18 10:53:51;;;;;;;;;;;33.00;53.30;;;;;;5002021;28;19940;-79
2022/07/18 10:56:28;;;;;;;;;;;33.00;53.50;;;;;;4986299;28;19952;-78
2022/07/18 10:58:57;;;;;;;;;;;33.30;53.90;;;;;;4970435;28;19929;-79
2022/07/18 11:01:26;;;;;;;;;;;33.30;53.50;;;;;;4982060;28;19930;-78
2022/07/18 11:04:14;;;;;;;;;;;33.50;53.40;;;;;;5003296;28;19930;-79
2022/07/18 11:07:01;;;;;;;;;;;33.60;53.30;;;;;;5003558;28;19937;-80
2022/07/18 11:09:47;;;;;;;;;;;33.70;52.80;;;;;;5002707;28;19926;-77
2022/07/18 11:12:23;;;;;;;;;;;33.80;53.20;;;;;;5003726;28;20507;-79
2022/07/18 11:14:58;;;;;;;;;;;33.90;52.70;;;;;;5003457;28;19926;-80
2022/07/18 11:17:52;;;;;;;;;;;34.10;52.80;;;;;;4985512;28;19945;-79
2022/07/18 11:20:29;;;;;;;;;;;34.30;52.70;;;;;;4985947;28;19936;-78
2022/07/18 11:22:57;;;;;;;;;;;34.50;52.90;;;;;;5004187;28;19930;-78
2022/07/18 11:25:27;;;;;;;;;;;34.60;51.20;;;;;;5002498;28;19934;-79
2022/07/18 11:28:16;;;;;;;;;;;34.70;51.60;;;;;;4988165;28;19930;-82
2022/07/18 11:30:44;;;;;;;;;;;34.90;51.30;;;;;;4986618;28;19926;-78
2022/07/18 11:33:20;;;;;;;;;;;35.00;51.40;;;;;;4989366;28;19926;-79
2022/07/18 11:35:49;;;;;;;;;;;35.00;49.60;;;;;;4981355;28;19929;-79
2022/07/18 11:38:21;;;;;;;;;;;35.20;50.70;;;;;;4979402;28;19930;-79
2022/07/18 11:40:52;;;;;;;;;;;35.20;49.90;;;;;;4996736;28;19929;-79
2022/07/18 11:43:24;;;;;;;;;;;35.40;49.70;;;;;;4982040;28;19926;-79
2022/07/18 11:46:00;;;;;;;;;;;35.50;49.70;;;;;;4998926;28;19941;-79
2022/07/18 11:48:29;;;;;;;;;;;35.50;49.70;;;;;;4981850;28;19936;-78
2022/07/18 11:50:57;;;;;;;;;;;35.50;49.40;;;;;;4981480;28;19933;-78
2022/07/18 11:53:26;;;;;;;;;;;35.60;49.50;;;;;;4980516;28;19926;-78
2022/07/18 11:55:55;;;;;;;;;;;35.50;49.70;;;;;;4984635;28;19930;-79
2022/07/18 11:58:23;;;;;;;;;;;35.60;50.20;;;;;;4983948;28;19934;-78
2022/07/18 12:00:58;;;;;;;;;;;35.70;49.20;;;;;;4999638;28;19953;-80
2022/07/18 12:03:27;;;;;;;;;;;35.80;49.70;;;;;;4967455;28;19941;-79
2022/07/18 12:05:55;;;;;;;;;;;35.90;49.80;;;;;;4982655;28;19937;-78
2022/07/18 12:08:26;;;;;;;;;;;36.00;49.40;;;;;;4985358;28;19934;-78
2022/07/18 12:11:07;;;;;;;;;;;36.00;48.70;;;;;;4990564;28;19936;-79
2022/07/18 12:13:46;;;;;;;;;;;35.40;48.50;;;;;;4997122;28;19929;-79
2022/07/18 12:16:29;;;;;;;;;;;36.20;49.00;;;;;;4980441;28;19933;-80
2022/07/18 12:19:21;;;;;;;;;;;36.30;48.70;;;;;;4980761;28;19926;-79
2022/07/18 12:21:57;;;;;;;;;;;36.30;49.20;;;;;;4997720;28;19936;-79
2022/07/18 12:24:26;;;;;;;;;;;36.40;48.60;;;;;;5002006;28;19936;-79
2022/07/18 12:27:18;;;;;;;;;;;36.40;48.60;;;;;;4984716;28;19926;-79
2022/07/18 12:30:05;;;;;;;;;;;36.40;48.90;;;;;;5005178;28;19937;-79
2022/07/18 12:32:33;;;;;;;;;;;36.60;49.10;;;;;;4971199;28;20040;-77
2022/07/18 12:35:25;;;;;;;;;;;37.30;49.40;;;;;;4999801;28;19926;-78
2022/07/18 12:38:13;;;;;;;;;;;36.80;47.70;;;;;;5003069;28;19937;-79
2022/07/18 12:40:49;;;;;;;;;;;36.80;47.60;;;;;;4969149;28;19925;-79
2022/07/18 12:43:24;;;;;;;;;;;36.70;46.80;;;;;;5001979;28;19929;-79
2022/07/18 12:45:54;;;;;;;;;;;36.70;46.30;;;;;;4997344;28;19930;-80
2022/07/18 12:48:22;;;;;;;;;;;36.60;46.80;;;;;;4985042;28;19926;-78
2022/07/18 12:51:02;;;;;;;;;;;36.80;47.20;;;;;;4986611;28;19936;-78
2022/07/18 12:53:31;;;;;;;;;;;37.40;46.60;;;;;;4656943;28;10000573;-79
2022/07/18 12:55:59;;;;;;;;;;;36.30;46.00;;;;;;5013943;28;19933;-78
2022/07/18 12:58:28;;;;;;;;;;;37.10;46.40;;;;;;4986105;28;19925;-79
2022/07/18 13:00:56;;;;;;;;;;;37.10;46.50;;;;;;4998713;28;19937;-79
2022/07/18 13:03:32;;;;;;;;;;;37.20;46.20;;;;;;5003683;28;20445;-79
2022/07/18 13:06:01;;;;;;;;;;;37.50;47.20;;;;;;4976519;28;19940;-78
2022/07/18 13:08:29;;;;;;;;;;;37.60;46.80;;;;;;4987281;28;19932;-80
2022/07/18 13:11:00;;;;;;;;;;;37.70;47.10;;;;;;4988751;28;19936;-79
2022/07/18 13:13:29;;;;;;;;;;;37.80;46.50;;;;;;4995075;28;19930;-80
2022/07/18 13:15:57;;;;;;;;;;;37.90;46.40;;;;;;4969762;28;20307;-78
2022/07/18 13:18:25;;;;;;;;;;;38.00;46.00;;;;;;4988691;28;19937;-79
2022/07/18 13:20:53;;;;;;;;;;;38.10;44.60;;;;;;5000188;28;19934;-80
2022/07/18 13:23:21;;;;;;;;;;;38.20;45.60;;;;;;4987190;28;19930;-79
2022/07/18 13:25:48;;;;;;;;;;;38.20;45.60;;;;;;5001464;28;19945;-79
2022/07/18 13:28:16;;;;;;;;;;;38.40;45.20;;;;;;4985952;28;19933;-82
2022/07/18 13:30:44;;;;;;;;;;;38.60;45.40;;;;;;4984666;28;19926;-80
2022/07/18 13:33:12;;;;;;;;;;;38.80;44.10;;;;;;4978792;28;19944;-79
2022/07/18 13:35:40;;;;;;;;;;;38.90;44.80;;;;;;4994482;28;19930;-78
2022/07/18 13:38:08;;;;;;;;;;;38.90;44.70;;;;;;4978320;28;20846;-78
2022/07/18 13:40:35;;;;;;;;;;;39.00;44.70;;;;;;4994570;28;19953;-79
2022/07/18 13:43:04;;;;;;;;;;;39.20;45.00;;;;;;4978180;28;19926;-79
2022/07/18 13:45:32;;;;;;;;;;;39.40;44.40;;;;;;4961467;28;20261;-79
2022/07/18 13:48:00;;;;;;;;;;;39.60;44.90;;;;;;4992934;28;19930;-82
2022/07/18 13:50:28;;;;;;;;;;;39.70;44.00;;;;;;4995571;28;19956;-79
2022/07/18 13:52:56;;;;;;;;;;;39.90;44.40;;;;;;4992982;28;19937;-78
2022/07/18 13:55:24;;;;;;;;;;;40.00;43.70;;;;;;4994726;28;19940;-78
2022/07/18 13:57:53;;;;;;;;;;;40.20;44.60;;;;;;4977496;28;19925;-80
2022/07/18 14:00:20;;;;;;;;;;;40.20;43.70;;;;;;4993557;28;19934;-81
2022/07/18 14:02:48;;;;;;;;;;;40.20;44.40;;;;;;4996954;28;19934;-82
2022/07/18 14:05:16;;;;;;;;;;;40.30;43.80;;;;;;4969591;28;19941;-82
2022/07/18 14:07:45;;;;;;;;;;;40.30;43.30;;;;;;4990418;28;19941;-81
2022/07/18 14:10:14;;;;;;;;;;;41.10;43.90;;;;;;4998223;28;19925;-80
2022/07/18 14:12:42;;;;;;;;;;;40.40;42.70;;;;;;4968493;28;19926;-81
2022/07/18 14:15:10;;;;;;;;;;;40.60;43.40;;;;;;4986149;28;19945;-82
2022/07/18 14:17:39;;;;;;;;;;;40.70;43.00;;;;;;5001884;28;19941;-82
2022/07/18 14:20:07;;;;;;;;;;;40.80;43.10;;;;;;4976154;28;19930;-81
2022/07/18 14:22:36;;;;;;;;;;;41.00;42.80;;;;;;4984216;28;21093;-82
2022/07/18 14:25:05;;;;;;;;;;;41.30;43.20;;;;;;4976279;28;20339;-82
2022/07/18 14:27:36;;;;;;;;;;;41.70;43.10;;;;;;4980312;28;19940;-83
2022/07/18 14:30:06;;;;;;;;;;;41.50;42.30;;;;;;4981294;28;19934;-84
2022/07/18 14:32:42;;;;;;;;;;;42.40;43.00;;;;;;4981186;28;19953;-82
2022/07/18 14:35:14;;;;;;;;;;;42.00;42.60;;;;;;4996932;28;20010;-81